KZZV/ZZV METAR and TAF weather

Enter ICAO airport designator
Station Type Date Time Source
KZZV METAR 2019/04/25 15:53 UTC NOAA

KZZV 251553Z AUTO 13003KT 10SM BKN005 OVC065 14/13 A2985 RMK AO2 RAB30E42 SLP106 P0000 T01440128


Station Type Date Time Source
KZZV Decoded METAR 2019/04/25 15:53 UTC NOAA

ZANESVILLE MUNICIPAL AIRPORT , OH, United States (KZZV) 39-57N 81-54W 268M
Apr 25, 2019 - 11:53 AM EDT / 2019.04.25 1553 UTC
Wind: from the SE (130 degrees) at 3 MPH (3 KT):0
Visibility: 10 mile(s):0
Sky conditions: overcast
Precipitation last hour: A trace
Temperature: 57.9 F (14.4 C)
Dew Point: 55.0 F (12.8 C)
Relative Humidity: 90%
Pressure (altimeter): 29.85 in. Hg (1010 hPa)
ob: KZZV 251553Z AUTO 13003KT 10SM BKN005 OVC065 14/13 A2985 RMK AO2 RAB30E42 SLP106 P0000 T01440128
cycle: 16

Station Type Date Time Source
KZZV TAF 2019/04/25 14:21 UTC NOAA

TAF
AMD KZZV 251418Z 2514/2612 11003KT P6SM -SHRA OVC050
FM251800 19006KT P6SM -SHRA OVC015
FM260000 17005KT 5SM -SHRA OVC010
FM260900 20012KT 4SM SHRA BR OVC008

Example: see airport list